sensor_id;sensor_type;location;lat;lon;timestamp;P1;durP1;ratioP1;P2;durP2;ratioP2
56307;SDS011;42217;50.422;7.210;2023-07-24T00:00:13;1999.90;;;999.90;;
56307;SDS011;42217;50.422;7.210;2023-07-24T00:02:39;1999.90;;;999.90;;
56307;SDS011;42217;50.422;7.210;2023-07-24T00:05:05;1999.90;;;999.90;;
56307;SDS011;42217;50.422;7.210;2023-07-24T00:07:31;1999.90;;;999.90;;
56307;SDS011;42217;50.422;7.210;2023-07-24T00:09:57;1999.90;;;999.90;;
56307;SDS011;42217;50.422;7.210;2023-07-24T00:12:23;1999.90;;;999.90;;
56307;SDS011;42217;50.422;7.210;2023-07-24T00:14:48;1999.90;;;999.90;;
56307;SDS011;42217;50.422;7.210;2023-07-24T00:17:14;1999.90;;;999.90;;
56307;SDS011;42217;50.422;7.210;2023-07-24T00:19:39;1999.90;;;999.90;;
56307;SDS011;42217;50.422;7.210;2023-07-24T00:22:05;1999.90;;;999.90;;
56307;SDS011;42217;50.422;7.210;2023-07-24T00:24:31;1999.90;;;999.90;;
56307;SDS011;42217;50.422;7.210;2023-07-24T00:26:57;1999.90;;;999.90;;
56307;SDS011;42217;50.422;7.210;2023-07-24T00:29:23;1999.90;;;999.90;;
56307;SDS011;42217;50.422;7.210;2023-07-24T00:31:48;1999.90;;;999.90;;
56307;SDS011;42217;50.422;7.210;2023-07-24T00:34:14;1999.90;;;999.90;;
56307;SDS011;42217;50.422;7.210;2023-07-24T00:36:40;1999.90;;;999.90;;
56307;SDS011;42217;50.422;7.210;2023-07-24T00:39:06;1999.90;;;999.90;;
56307;SDS011;42217;50.422;7.210;2023-07-24T00:41:31;1999.90;;;999.90;;
56307;SDS011;42217;50.422;7.210;2023-07-24T00:43:57;1999.90;;;999.90;;
56307;SDS011;42217;50.422;7.210;2023-07-24T00:46:23;1999.90;;;999.90;;
56307;SDS011;42217;50.422;7.210;2023-07-24T00:48:50;1999.90;;;999.90;;
56307;SDS011;42217;50.422;7.210;2023-07-24T00:51:16;1999.90;;;999.90;;
56307;SDS011;42217;50.422;7.210;2023-07-24T00:53:42;1999.90;;;999.90;;
56307;SDS011;42217;50.422;7.210;2023-07-24T00:56:08;1999.90;;;999.90;;
56307;SDS011;42217;50.422;7.210;2023-07-24T00:58:35;1999.90;;;999.90;;
56307;SDS011;42217;50.422;7.210;2023-07-24T01:01:03;1999.90;;;999.90;;
56307;SDS011;42217;50.422;7.210;2023-07-24T01:03:33;1999.90;;;999.90;;
56307;SDS011;42217;50.422;7.210;2023-07-24T01:06:02;1999.90;;;999.90;;
56307;SDS011;42217;50.422;7.210;2023-07-24T01:08:28;1999.90;;;999.90;;
56307;SDS011;42217;50.422;7.210;2023-07-24T01:10:54;1999.90;;;999.90;;
56307;SDS011;42217;50.422;7.210;2023-07-24T01:13:24;1999.90;;;999.90;;
56307;SDS011;42217;50.422;7.210;2023-07-24T01:16:04;1999.90;;;999.90;;
56307;SDS011;42217;50.422;7.210;2023-07-24T01:18:42;1999.90;;;999.90;;
56307;SDS011;42217;50.422;7.210;2023-07-24T01:21:09;1999.90;;;999.90;;
56307;SDS011;42217;50.422;7.210;2023-07-24T01:26:28;1999.90;;;999.90;;
56307;SDS011;42217;50.422;7.210;2023-07-24T01:28:53;1999.90;;;999.90;;
56307;SDS011;42217;50.422;7.210;2023-07-24T01:31:19;1999.90;;;999.90;;
56307;SDS011;42217;50.422;7.210;2023-07-24T01:33:45;1999.90;;;999.90;;
56307;SDS011;42217;50.422;7.210;2023-07-24T01:36:11;1999.90;;;999.90;;
56307;SDS011;42217;50.422;7.210;2023-07-24T01:38:38;1999.90;;;999.90;;
56307;SDS011;42217;50.422;7.210;2023-07-24T01:41:04;1999.90;;;999.90;;
56307;SDS011;42217;50.422;7.210;2023-07-24T01:43:31;1999.90;;;999.90;;
56307;SDS011;42217;50.422;7.210;2023-07-24T01:45:57;1999.90;;;999.90;;
56307;SDS011;42217;50.422;7.210;2023-07-24T01:48:23;1999.90;;;999.90;;
56307;SDS011;42217;50.422;7.210;2023-07-24T01:50:49;1999.90;;;999.90;;
56307;SDS011;42217;50.422;7.210;2023-07-24T01:53:15;1999.90;;;999.90;;
56307;SDS011;42217;50.422;7.210;2023-07-24T01:55:41;1999.90;;;999.90;;
56307;SDS011;42217;50.422;7.210;2023-07-24T01:58:06;1999.90;;;999.90;;
56307;SDS011;42217;50.422;7.210;2023-07-24T02:00:32;1999.90;;;999.90;;
56307;SDS011;42217;50.422;7.210;2023-07-24T02:02:58;1999.90;;;999.90;;
56307;SDS011;42217;50.422;7.210;2023-07-24T02:05:24;1999.90;;;999.90;;
56307;SDS011;42217;50.422;7.210;2023-07-24T02:07:50;1999.90;;;999.90;;
56307;SDS011;42217;50.422;7.210;2023-07-24T02:10:16;1999.90;;;999.90;;
56307;SDS011;42217;50.422;7.210;2023-07-24T02:12:42;1999.90;;;999.90;;
56307;SDS011;42217;50.422;7.210;2023-07-24T02:15:07;1999.90;;;999.90;;
56307;SDS011;42217;50.422;7.210;2023-07-24T02:17:33;1999.90;;;999.90;;
56307;SDS011;42217;50.422;7.210;2023-07-24T02:19:59;1999.90;;;999.90;;
56307;SDS011;42217;50.422;7.210;2023-07-24T02:22:25;1999.90;;;999.90;;
56307;SDS011;42217;50.422;7.210;2023-07-24T02:24:50;1999.90;;;999.90;;
56307;SDS011;42217;50.422;7.210;2023-07-24T02:27:26;1999.90;;;999.90;;
56307;SDS011;42217;50.422;7.210;2023-07-24T02:29:53;1999.90;;;999.90;;
56307;SDS011;42217;50.422;7.210;2023-07-24T02:32:22;1999.90;;;999.90;;
56307;SDS011;42217;50.422;7.210;2023-07-24T02:34:51;1999.90;;;999.90;;
56307;SDS011;42217;50.422;7.210;2023-07-24T02:37:17;1999.90;;;999.90;;
56307;SDS011;42217;50.422;7.210;2023-07-24T02:39:43;1999.90;;;999.90;;
56307;SDS011;42217;50.422;7.210;2023-07-24T02:42:09;1999.90;;;999.90;;
56307;SDS011;42217;50.422;7.210;2023-07-24T02:44:35;1999.90;;;999.90;;
56307;SDS011;42217;50.422;7.210;2023-07-24T02:47:00;1999.90;;;999.90;;
56307;SDS011;42217;50.422;7.210;2023-07-24T02:49:26;1999.90;;;999.90;;
56307;SDS011;42217;50.422;7.210;2023-07-24T02:51:52;1999.90;;;999.90;;
56307;SDS011;42217;50.422;7.210;2023-07-24T02:54:18;1999.90;;;999.90;;
56307;SDS011;42217;50.422;7.210;2023-07-24T02:56:43;1999.90;;;999.90;;
56307;SDS011;42217;50.422;7.210;2023-07-24T02:59:09;1999.90;;;999.90;;
56307;SDS011;42217;50.422;7.210;2023-07-24T03:01:36;1999.90;;;999.90;;
56307;SDS011;42217;50.422;7.210;2023-07-24T03:04:02;1999.90;;;999.90;;
56307;SDS011;42217;50.422;7.210;2023-07-24T03:06:30;1999.90;;;999.90;;
56307;SDS011;42217;50.422;7.210;2023-07-24T03:08:56;1999.90;;;999.90;;
56307;SDS011;42217;50.422;7.210;2023-07-24T03:11:22;1999.90;;;999.90;;
56307;SDS011;42217;50.422;7.210;2023-07-24T03:13:47;1999.90;;;999.90;;
56307;SDS011;42217;50.422;7.210;2023-07-24T03:16:13;1999.90;;;999.90;;
56307;SDS011;42217;50.422;7.210;2023-07-24T03:18:39;1999.90;;;999.90;;
56307;SDS011;42217;50.422;7.210;2023-07-24T03:21:05;1999.90;;;999.90;;
56307;SDS011;42217;50.422;7.210;2023-07-24T03:23:30;1999.90;;;999.90;;
56307;SDS011;42217;50.422;7.210;2023-07-24T03:25:56;1999.90;;;999.90;;
56307;SDS011;42217;50.422;7.210;2023-07-24T03:28:22;1999.90;;;999.90;;
56307;SDS011;42217;50.422;7.210;2023-07-24T03:30:47;1999.90;;;999.90;;
56307;SDS011;42217;50.422;7.210;2023-07-24T03:33:13;1999.90;;;999.90;;
56307;SDS011;42217;50.422;7.210;2023-07-24T03:35:39;1999.90;;;999.90;;
56307;SDS011;42217;50.422;7.210;2023-07-24T03:38:05;1999.90;;;999.90;;
56307;SDS011;42217;50.422;7.210;2023-07-24T03:40:30;1999.90;;;999.90;;
56307;SDS011;42217;50.422;7.210;2023-07-24T03:42:56;1999.90;;;999.90;;
56307;SDS011;42217;50.422;7.210;2023-07-24T03:45:22;1999.90;;;999.90;;
56307;SDS011;42217;50.422;7.210;2023-07-24T03:47:48;1999.90;;;999.90;;
56307;SDS011;42217;50.422;7.210;2023-07-24T03:50:13;1999.90;;;999.90;;
56307;SDS011;42217;50.422;7.210;2023-07-24T03:52:39;1999.90;;;999.90;;
56307;SDS011;42217;50.422;7.210;2023-07-24T03:55:05;1999.90;;;999.90;;
56307;SDS011;42217;50.422;7.210;2023-07-24T03:57:32;1999.90;;;999.90;;
56307;SDS011;42217;50.422;7.210;2023-07-24T03:59:58;1999.90;;;999.90;;
56307;SDS011;42217;50.422;7.210;2023-07-24T04:02:24;1999.90;;;999.90;;
56307;SDS011;42217;50.422;7.210;2023-07-24T04:04:49;1999.90;;;999.90;;
56307;SDS011;42217;50.422;7.210;2023-07-24T04:07:15;1999.90;;;999.90;;
56307;SDS011;42217;50.422;7.210;2023-07-24T04:09:41;1999.90;;;999.90;;
56307;SDS011;42217;50.422;7.210;2023-07-24T04:12:06;1999.90;;;999.90;;
56307;SDS011;42217;50.422;7.210;2023-07-24T04:14:32;1999.90;;;999.90;;
56307;SDS011;42217;50.422;7.210;2023-07-24T04:16:58;1999.90;;;999.90;;
56307;SDS011;42217;50.422;7.210;2023-07-24T04:19:24;1999.90;;;999.90;;
56307;SDS011;42217;50.422;7.210;2023-07-24T04:21:49;1999.90;;;999.90;;
56307;SDS011;42217;50.422;7.210;2023-07-24T04:24:15;1999.90;;;999.90;;
56307;SDS011;42217;50.422;7.210;2023-07-24T04:26:41;1999.90;;;999.90;;
56307;SDS011;42217;50.422;7.210;2023-07-24T04:29:07;1999.90;;;999.90;;
56307;SDS011;42217;50.422;7.210;2023-07-24T04:31:33;1999.90;;;999.90;;
56307;SDS011;42217;50.422;7.210;2023-07-24T04:33:58;1999.90;;;999.90;;
56307;SDS011;42217;50.422;7.210;2023-07-24T04:36:24;1999.90;;;999.90;;
56307;SDS011;42217;50.422;7.210;2023-07-24T04:38:50;1999.90;;;999.90;;
56307;SDS011;42217;50.422;7.210;2023-07-24T04:41:16;1999.90;;;999.90;;
56307;SDS011;42217;50.422;7.210;2023-07-24T04:43:41;1999.90;;;999.90;;
56307;SDS011;42217;50.422;7.210;2023-07-24T04:46:07;1999.90;;;999.90;;
56307;SDS011;42217;50.422;7.210;2023-07-24T04:48:33;1999.90;;;999.90;;
56307;SDS011;42217;50.422;7.210;2023-07-24T04:50:58;1999.90;;;999.90;;
56307;SDS011;42217;50.422;7.210;2023-07-24T04:53:24;1999.90;;;999.90;;
56307;SDS011;42217;50.422;7.210;2023-07-24T04:55:50;1999.90;;;999.90;;
56307;SDS011;42217;50.422;7.210;2023-07-24T04:58:15;1999.90;;;999.90;;
56307;SDS011;42217;50.422;7.210;2023-07-24T05:00:41;1999.90;;;999.90;;
56307;SDS011;42217;50.422;7.210;2023-07-24T05:03:07;1999.90;;;999.90;;
56307;SDS011;42217;50.422;7.210;2023-07-24T05:05:36;1999.90;;;999.90;;
56307;SDS011;42217;50.422;7.210;2023-07-24T05:08:02;1999.90;;;999.90;;
56307;SDS011;42217;50.422;7.210;2023-07-24T05:10:28;1999.90;;;999.90;;
56307;SDS011;42217;50.422;7.210;2023-07-24T05:12:53;1999.90;;;999.90;;
56307;SDS011;42217;50.422;7.210;2023-07-24T05:15:21;1999.90;;;999.90;;
56307;SDS011;42217;50.422;7.210;2023-07-24T05:17:47;1999.90;;;999.90;;
56307;SDS011;42217;50.422;7.210;2023-07-24T05:20:13;1999.90;;;999.90;;
56307;SDS011;42217;50.422;7.210;2023-07-24T05:22:39;1999.90;;;999.90;;
56307;SDS011;42217;50.422;7.210;2023-07-24T05:25:04;1999.90;;;999.90;;
56307;SDS011;42217;50.422;7.210;2023-07-24T05:27:30;1999.90;;;999.90;;
56307;SDS011;42217;50.422;7.210;2023-07-24T05:29:56;1999.90;;;999.90;;
56307;SDS011;42217;50.422;7.210;2023-07-24T05:32:22;1999.90;;;999.90;;
56307;SDS011;42217;50.422;7.210;2023-07-24T05:34:48;1999.90;;;999.90;;
56307;SDS011;42217;50.422;7.210;2023-07-24T05:37:13;1999.90;;;999.90;;
56307;SDS011;42217;50.422;7.210;2023-07-24T05:39:39;1999.90;;;999.90;;
56307;SDS011;42217;50.422;7.210;2023-07-24T05:42:05;1999.90;;;999.90;;
56307;SDS011;42217;50.422;7.210;2023-07-24T05:44:31;1999.90;;;999.90;;
56307;SDS011;42217;50.422;7.210;2023-07-24T05:46:58;1999.90;;;999.90;;
56307;SDS011;42217;50.422;7.210;2023-07-24T05:49:23;1999.90;;;999.90;;
56307;SDS011;42217;50.422;7.210;2023-07-24T05:51:49;1999.90;;;999.90;;
56307;SDS011;42217;50.422;7.210;2023-07-24T05:54:15;1999.90;;;999.90;;
56307;SDS011;42217;50.422;7.210;2023-07-24T05:56:40;1999.90;;;999.90;;
56307;SDS011;42217;50.422;7.210;2023-07-24T05:59:06;1999.90;;;999.90;;
56307;SDS011;42217;50.422;7.210;2023-07-24T06:01:32;1999.90;;;999.90;;
56307;SDS011;42217;50.422;7.210;2023-07-24T06:03:57;1999.90;;;999.90;;
56307;SDS011;42217;50.422;7.210;2023-07-24T06:06:23;1999.90;;;999.90;;
56307;SDS011;42217;50.422;7.210;2023-07-24T06:08:49;1999.90;;;999.90;;
56307;SDS011;42217;50.422;7.210;2023-07-24T06:11:16;1999.90;;;999.90;;
56307;SDS011;42217;50.422;7.210;2023-07-24T06:13:41;1999.90;;;999.90;;
56307;SDS011;42217;50.422;7.210;2023-07-24T06:16:07;1999.90;;;999.90;;
56307;SDS011;42217;50.422;7.210;2023-07-24T06:18:34;1999.90;;;999.90;;
56307;SDS011;42217;50.422;7.210;2023-07-24T06:21:00;1999.90;;;999.90;;
56307;SDS011;42217;50.422;7.210;2023-07-24T06:23:25;1999.90;;;999.90;;
56307;SDS011;42217;50.422;7.210;2023-07-24T06:25:51;1999.90;;;999.90;;
56307;SDS011;42217;50.422;7.210;2023-07-24T06:28:18;1999.90;;;999.90;;
56307;SDS011;42217;50.422;7.210;2023-07-24T06:30:43;1999.90;;;999.90;;
56307;SDS011;42217;50.422;7.210;2023-07-24T06:33:09;1999.90;;;999.90;;
56307;SDS011;42217;50.422;7.210;2023-07-24T06:35:35;1999.90;;;999.90;;
56307;SDS011;42217;50.422;7.210;2023-07-24T06:38:01;1999.90;;;999.90;;
56307;SDS011;42217;50.422;7.210;2023-07-24T06:40:26;1999.90;;;999.90;;
56307;SDS011;42217;50.422;7.210;2023-07-24T06:42:52;1999.90;;;999.90;;
56307;SDS011;42217;50.422;7.210;2023-07-24T06:45:18;1999.90;;;999.90;;
56307;SDS011;42217;50.422;7.210;2023-07-24T06:47:43;1999.90;;;999.90;;
56307;SDS011;42217;50.422;7.210;2023-07-24T06:50:09;1999.90;;;999.90;;
56307;SDS011;42217;50.422;7.210;2023-07-24T06:52:35;1999.90;;;999.90;;
56307;SDS011;42217;50.422;7.210;2023-07-24T06:55:01;1999.90;;;999.90;;
56307;SDS011;42217;50.422;7.210;2023-07-24T06:57:27;1999.90;;;999.90;;
56307;SDS011;42217;50.422;7.210;2023-07-24T06:59:52;1999.90;;;999.90;;
56307;SDS011;42217;50.422;7.210;2023-07-24T07:02:18;1999.90;;;999.90;;
56307;SDS011;42217;50.422;7.210;2023-07-24T07:04:44;1999.90;;;999.90;;
56307;SDS011;42217;50.422;7.210;2023-07-24T07:07:09;1999.90;;;999.90;;
56307;SDS011;42217;50.422;7.210;2023-07-24T07:09:35;1999.90;;;999.90;;
56307;SDS011;42217;50.422;7.210;2023-07-24T07:12:01;1999.90;;;999.90;;
56307;SDS011;42217;50.422;7.210;2023-07-24T07:14:26;1999.90;;;999.90;;
56307;SDS011;42217;50.422;7.210;2023-07-24T07:16:52;1999.90;;;999.90;;
56307;SDS011;42217;50.422;7.210;2023-07-24T07:19:18;1999.90;;;999.90;;
56307;SDS011;42217;50.422;7.210;2023-07-24T07:21:43;1999.90;;;999.90;;
56307;SDS011;42217;50.422;7.210;2023-07-24T07:24:09;1999.90;;;999.90;;
56307;SDS011;42217;50.422;7.210;2023-07-24T07:26:35;1999.90;;;999.90;;
56307;SDS011;42217;50.422;7.210;2023-07-24T07:29:00;1999.90;;;999.90;;
56307;SDS011;42217;50.422;7.210;2023-07-24T07:31:26;901.90;;;829.88;;
56307;SDS011;42217;50.422;7.210;2023-07-24T07:33:52;823.20;;;761.67;;
56307;SDS011;42217;50.422;7.210;2023-07-24T07:36:17;825.33;;;763.28;;
56307;SDS011;42217;50.422;7.210;2023-07-24T07:38:43;789.08;;;732.47;;
56307;SDS011;42217;50.422;7.210;2023-07-24T07:41:09;756.75;;;703.85;;
56307;SDS011;42217;50.422;7.210;2023-07-24T07:43:35;709.05;;;662.78;;
56307;SDS011;42217;50.422;7.210;2023-07-24T07:46:01;725.35;;;678.17;;
56307;SDS011;42217;50.422;7.210;2023-07-24T07:48:28;705.33;;;660.95;;
56307;SDS011;42217;50.422;7.210;2023-07-24T07:50:53;699.38;;;655.30;;
56307;SDS011;42217;50.422;7.210;2023-07-24T07:53:19;707.67;;;662.75;;
56307;SDS011;42217;50.422;7.210;2023-07-24T07:55:45;703.45;;;657.92;;
56307;SDS011;42217;50.422;7.210;2023-07-24T07:58:11;698.10;;;654.17;;
56307;SDS011;42217;50.422;7.210;2023-07-24T08:00:36;716.53;;;670.05;;
56307;SDS011;42217;50.422;7.210;2023-07-24T08:03:04;721.30;;;672.75;;
56307;SDS011;42217;50.422;7.210;2023-07-24T08:05:30;1475.38;;;936.60;;
56307;SDS011;42217;50.422;7.210;2023-07-24T08:07:57;1005.47;;;921.17;;
56307;SDS011;42217;50.422;7.210;2023-07-24T08:10:23;1724.22;;;956.40;;
56307;SDS011;42217;50.422;7.210;2023-07-24T08:12:48;954.22;;;876.10;;
56307;SDS011;42217;50.422;7.210;2023-07-24T08:15:14;974.40;;;894.08;;
56307;SDS011;42217;50.422;7.210;2023-07-24T08:17:40;706.50;;;659.58;;
56307;SDS011;42217;50.422;7.210;2023-07-24T08:20:06;755.90;;;701.38;;
56307;SDS011;42217;50.422;7.210;2023-07-24T08:22:32;745.58;;;692.28;;
56307;SDS011;42217;50.422;7.210;2023-07-24T08:24:58;768.00;;;710.35;;
56307;SDS011;42217;50.422;7.210;2023-07-24T08:27:23;713.60;;;662.40;;
56307;SDS011;42217;50.422;7.210;2023-07-24T08:29:52;662.80;;;616.20;;
56307;SDS011;42217;50.422;7.210;2023-07-24T08:32:18;711.35;;;658.10;;
56307;SDS011;42217;50.422;7.210;2023-07-24T08:34:44;763.03;;;707.38;;
56307;SDS011;42217;50.422;7.210;2023-07-24T08:37:11;783.58;;;726.25;;
56307;SDS011;42217;50.422;7.210;2023-07-24T08:39:37;761.25;;;705.80;;
56307;SDS011;42217;50.422;7.210;2023-07-24T08:42:13;726.45;;;676.03;;
56307;SDS011;42217;50.422;7.210;2023-07-24T08:44:39;620.72;;;580.00;;
56307;SDS011;42217;50.422;7.210;2023-07-24T08:47:06;569.70;;;535.80;;
56307;SDS011;42217;50.422;7.210;2023-07-24T08:49:36;600.67;;;564.08;;
56307;SDS011;42217;50.422;7.210;2023-07-24T08:52:05;550.70;;;518.95;;
56307;SDS011;42217;50.422;7.210;2023-07-24T08:54:32;542.95;;;510.88;;
56307;SDS011;42217;50.422;7.210;2023-07-24T08:57:00;657.50;;;614.70;;
56307;SDS011;42217;50.422;7.210;2023-07-24T08:59:27;714.22;;;664.95;;
56307;SDS011;42217;50.422;7.210;2023-07-24T09:01:54;746.28;;;693.33;;
56307;SDS011;42217;50.422;7.210;2023-07-24T09:04:20;763.60;;;709.83;;
56307;SDS011;42217;50.422;7.210;2023-07-24T09:06:47;628.10;;;589.45;;
56307;SDS011;42217;50.422;7.210;2023-07-24T09:09:13;649.13;;;606.47;;
56307;SDS011;42217;50.422;7.210;2023-07-24T09:11:47;595.13;;;558.30;;
56307;SDS011;42217;50.422;7.210;2023-07-24T09:14:26;626.55;;;584.35;;
56307;SDS011;42217;50.422;7.210;2023-07-24T09:19:36;814.50;;;753.88;;
56307;SDS011;42217;50.422;7.210;2023-07-24T09:22:09;759.47;;;705.28;;
56307;SDS011;42217;50.422;7.210;2023-07-24T09:24:49;840.00;;;777.40;;
56307;SDS011;42217;50.422;7.210;2023-07-24T09:27:16;822.10;;;761.85;;
56307;SDS011;42217;50.422;7.210;2023-07-24T09:29:42;809.30;;;750.47;;
56307;SDS011;42217;50.422;7.210;2023-07-24T09:32:08;770.15;;;715.65;;
56307;SDS011;42217;50.422;7.210;2023-07-24T09:34:47;639.70;;;598.15;;
56307;SDS011;42217;50.422;7.210;2023-07-24T09:37:49;633.83;;;594.08;;
56307;SDS011;42217;50.422;7.210;2023-07-24T09:40:08;599.33;;;563.55;;
56307;SDS011;42217;50.422;7.210;2023-07-24T09:42:35;585.08;;;549.85;;
56307;SDS011;42217;50.422;7.210;2023-07-24T09:45:03;544.83;;;511.52;;
56307;SDS011;42217;50.422;7.210;2023-07-24T09:47:29;530.67;;;501.02;;
56307;SDS011;42217;50.422;7.210;2023-07-24T09:49:56;621.45;;;582.08;;
56307;SDS011;42217;50.422;7.210;2023-07-24T09:52:21;632.45;;;591.13;;
56307;SDS011;42217;50.422;7.210;2023-07-24T09:54:58;608.70;;;570.70;;
56307;SDS011;42217;50.422;7.210;2023-07-24T09:57:24;588.13;;;553.08;;
56307;SDS011;42217;50.422;7.210;2023-07-24T09:59:53;706.03;;;655.78;;
56307;SDS011;42217;50.422;7.210;2023-07-24T10:02:21;686.17;;;637.78;;
56307;SDS011;42217;50.422;7.210;2023-07-24T10:04:47;607.05;;;569.78;;
56307;SDS011;42217;50.422;7.210;2023-07-24T10:07:14;555.90;;;524.50;;
56307;SDS011;42217;50.422;7.210;2023-07-24T10:12:13;563.13;;;530.97;;
56307;SDS011;42217;50.422;7.210;2023-07-24T10:14:41;533.70;;;503.88;;
56307;SDS011;42217;50.422;7.210;2023-07-24T10:17:07;598.55;;;559.72;;
56307;SDS011;42217;50.422;7.210;2023-07-24T10:19:39;728.75;;;673.08;;
56307;SDS011;42217;50.422;7.210;2023-07-24T10:22:08;555.05;;;522.35;;
56307;SDS011;42217;50.422;7.210;2023-07-24T10:24:42;555.20;;;519.40;;
56307;SDS011;42217;50.422;7.210;2023-07-24T10:27:08;517.33;;;486.15;;
56307;SDS011;42217;50.422;7.210;2023-07-24T10:29:34;592.88;;;551.17;;
56307;SDS011;42217;50.422;7.210;2023-07-24T10:32:01;799.20;;;737.50;;
56307;SDS011;42217;50.422;7.210;2023-07-24T10:34:35;879.13;;;809.47;;
56307;SDS011;42217;50.422;7.210;2023-07-24T10:37:02;898.20;;;827.78;;
56307;SDS011;42217;50.422;7.210;2023-07-24T10:39:36;870.75;;;802.53;;
56307;SDS011;42217;50.422;7.210;2023-07-24T10:42:09;896.72;;;826.75;;
56307;SDS011;42217;50.422;7.210;2023-07-24T10:44:36;864.50;;;797.30;;
56307;SDS011;42217;50.422;7.210;2023-07-24T10:47:02;551.80;;;512.25;;
56307;SDS011;42217;50.422;7.210;2023-07-24T10:49:28;453.83;;;424.30;;
56307;SDS011;42217;50.422;7.210;2023-07-24T10:51:57;342.15;;;324.33;;
56307;SDS011;42217;50.422;7.210;2023-07-24T10:54:24;309.13;;;292.85;;
56307;SDS011;42217;50.422;7.210;2023-07-24T10:56:50;309.67;;;290.65;;
56307;SDS011;42217;50.422;7.210;2023-07-24T10:59:24;319.05;;;302.95;;
56307;SDS011;42217;50.422;7.210;2023-07-24T11:02:06;284.10;;;269.77;;
56307;SDS011;42217;50.422;7.210;2023-07-24T11:04:36;277.33;;;263.25;;
56307;SDS011;42217;50.422;7.210;2023-07-24T11:07:05;247.10;;;234.80;;
56307;SDS011;42217;50.422;7.210;2023-07-24T11:09:34;206.15;;;195.80;;
56307;SDS011;42217;50.422;7.210;2023-07-24T11:12:20;221.35;;;210.07;;
56307;SDS011;42217;50.422;7.210;2023-07-24T11:15:34;297.50;;;280.88;;
56307;SDS011;42217;50.422;7.210;2023-07-24T11:18:11;395.77;;;374.73;;
56307;SDS011;42217;50.422;7.210;2023-07-24T11:20:38;445.17;;;419.00;;
56307;SDS011;42217;50.422;7.210;2023-07-24T11:23:15;422.70;;;399.60;;
56307;SDS011;42217;50.422;7.210;2023-07-24T11:25:42;410.75;;;388.25;;
56307;SDS011;42217;50.422;7.210;2023-07-24T11:28:11;393.42;;;371.77;;
56307;SDS011;42217;50.422;7.210;2023-07-24T11:30:37;533.33;;;492.98;;
56307;SDS011;42217;50.422;7.210;2023-07-24T11:33:04;503.08;;;473.00;;
56307;SDS011;42217;50.422;7.210;2023-07-24T11:35:31;589.45;;;549.13;;
56307;SDS011;42217;50.422;7.210;2023-07-24T11:37:58;635.40;;;590.17;;
56307;SDS011;42217;50.422;7.210;2023-07-24T11:40:42;751.97;;;696.15;;
56307;SDS011;42217;50.422;7.210;2023-07-24T11:43:19;802.38;;;741.33;;
56307;SDS011;42217;50.422;7.210;2023-07-24T11:45:48;728.20;;;673.13;;
56307;SDS011;42217;50.422;7.210;2023-07-24T11:48:18;711.70;;;657.85;;
56307;SDS011;42217;50.422;7.210;2023-07-24T11:50:46;794.83;;;732.10;;
56307;SDS011;42217;50.422;7.210;2023-07-24T11:53:29;823.92;;;760.45;;
56307;SDS011;42217;50.422;7.210;2023-07-24T11:55:57;923.40;;;849.42;;
56307;SDS011;42217;50.422;7.210;2023-07-24T11:58:28;896.33;;;827.53;;
56307;SDS011;42217;50.422;7.210;2023-07-24T12:00:55;912.97;;;837.42;;
56307;SDS011;42217;50.422;7.210;2023-07-24T12:03:21;568.58;;;536.20;;
56307;SDS011;42217;50.422;7.210;2023-07-24T12:05:49;687.42;;;641.47;;
56307;SDS011;42217;50.422;7.210;2023-07-24T12:08:15;881.08;;;813.05;;
56307;SDS011;42217;50.422;7.210;2023-07-24T12:10:43;839.88;;;780.38;;
56307;SDS011;42217;50.422;7.210;2023-07-24T12:13:09;967.70;;;892.40;;
56307;SDS011;42217;50.422;7.210;2023-07-24T12:15:35;771.30;;;719.28;;
56307;SDS011;42217;50.422;7.210;2023-07-24T12:18:02;912.03;;;844.05;;
56307;SDS011;42217;50.422;7.210;2023-07-24T12:20:29;828.10;;;770.30;;
56307;SDS011;42217;50.422;7.210;2023-07-24T12:22:56;771.85;;;719.10;;
56307;SDS011;42217;50.422;7.210;2023-07-24T12:25:22;898.53;;;830.58;;
56307;SDS011;42217;50.422;7.210;2023-07-24T12:27:48;1440.82;;;908.05;;
56307;SDS011;42217;50.422;7.210;2023-07-24T12:30:14;816.53;;;760.22;;
56307;SDS011;42217;50.422;7.210;2023-07-24T12:32:40;878.53;;;816.38;;
56307;SDS011;42217;50.422;7.210;2023-07-24T12:35:07;900.72;;;834.38;;
56307;SDS011;42217;50.422;7.210;2023-07-24T12:37:33;861.75;;;802.05;;
56307;SDS011;42217;50.422;7.210;2023-07-24T12:39:59;1007.55;;;921.08;;
56307;SDS011;42217;50.422;7.210;2023-07-24T12:42:25;863.42;;;800.97;;
56307;SDS011;42217;50.422;7.210;2023-07-24T12:44:51;1140.50;;;999.90;;
56307;SDS011;42217;50.422;7.210;2023-07-24T12:47:17;809.38;;;754.55;;
56307;SDS011;42217;50.422;7.210;2023-07-24T12:49:43;762.97;;;712.75;;
56307;SDS011;42217;50.422;7.210;2023-07-24T12:52:09;768.13;;;717.85;;
56307;SDS011;42217;50.422;7.210;2023-07-24T12:54:36;803.15;;;748.10;;
56307;SDS011;42217;50.422;7.210;2023-07-24T12:57:02;783.13;;;730.90;;
56307;SDS011;42217;50.422;7.210;2023-07-24T12:59:28;839.72;;;780.88;;
56307;SDS011;42217;50.422;7.210;2023-07-24T13:01:54;765.97;;;714.50;;
56307;SDS011;42217;50.422;7.210;2023-07-24T13:04:20;744.53;;;696.10;;
56307;SDS011;42217;50.422;7.210;2023-07-24T13:06:45;802.05;;;744.45;;
56307;SDS011;42217;50.422;7.210;2023-07-24T13:09:11;718.97;;;670.97;;
56307;SDS011;42217;50.422;7.210;2023-07-24T13:11:37;692.20;;;643.83;;
56307;SDS011;42217;50.422;7.210;2023-07-24T13:14:03;786.83;;;731.10;;
56307;SDS011;42217;50.422;7.210;2023-07-24T13:16:29;731.13;;;682.22;;
56307;SDS011;42217;50.422;7.210;2023-07-24T13:18:54;730.67;;;682.20;;
56307;SDS011;42217;50.422;7.210;2023-07-24T13:21:20;758.05;;;706.45;;
56307;SDS011;42217;50.422;7.210;2023-07-24T13:23:46;732.58;;;684.40;;
56307;SDS011;42217;50.422;7.210;2023-07-24T13:26:12;737.58;;;688.80;;
56307;SDS011;42217;50.422;7.210;2023-07-24T13:28:39;724.05;;;676.85;;
56307;SDS011;42217;50.422;7.210;2023-07-24T13:31:20;724.47;;;677.20;;
56307;SDS011;42217;50.422;7.210;2023-07-24T13:33:47;780.58;;;722.47;;
56307;SDS011;42217;50.422;7.210;2023-07-24T13:36:13;841.17;;;776.65;;
56307;SDS011;42217;50.422;7.210;2023-07-24T13:38:39;733.20;;;680.78;;
56307;SDS011;42217;50.422;7.210;2023-07-24T13:41:06;613.92;;;575.67;;
56307;SDS011;42217;50.422;7.210;2023-07-24T13:43:33;629.95;;;590.70;;
56307;SDS011;42217;50.422;7.210;2023-07-24T13:45:59;817.88;;;755.97;;
56307;SDS011;42217;50.422;7.210;2023-07-24T13:48:26;778.70;;;723.05;;
56307;SDS011;42217;50.422;7.210;2023-07-24T13:50:52;879.03;;;809.53;;
56307;SDS011;42217;50.422;7.210;2023-07-24T13:53:18;864.10;;;797.85;;
56307;SDS011;42217;50.422;7.210;2023-07-24T13:55:44;767.97;;;712.13;;